METAR Data
IDs: Format: Raw Decoded Include TAF

Data at: 1304 UTC 11 Dec 2018

LIBA 111155Z 28006KT 240V330 9999 FEW025 FEW030TCU 10/03 Q1017 RMK SCT SCT160 VIS MIN 9999 WIND THR11 28006KT WIND THR29 /////KT BLU

TAF LIBA 111100Z 1112/1121 28015KT 9999 SCT025
  TEMPO 1112/1116 5000 SHRA FEW020CB BKN030


LIBC 111150Z 35014KT 9999 FEW040 10/04 Q1016

TAF LIBC 111100Z 1112/1212 35015KT 9999 SCT030
  BECMG 1116/1118 VRB05KT
  BECMG 1209/1211 36010KT


LIBD 111250Z 32011KT 9999 FEW010 10/02 Q1016

TAF LIBD 111100Z 1112/1212 28012KT 9999 SCT030
  TEMPO 1112/1124 SHRA


LIBF 111150Z 29004KT 220V340 CAVOK 11/02 Q1017
No TAF found for LIBF

LIBG 111150Z 34011KT CAVOK 12/00 Q1015

TAF LIBG 111100Z 1112/1121 32012KT 9999 SCT030
  BECMG 1116/1118 VRB05KT


LIBP 111150Z 07008KT 050V110 9999 FEW020 10/04 Q1018

TAF LIBP 111100Z 1112/1212 28008KT 9999 SCT030
  TEMPO 1112/1120 SHRA


LIBR 111250Z 34013KT 9999 FEW025 12/M03 Q1015

TAF LIBR 111100Z 1112/1212 33016KT 9999 SCT030
  TEMPO 1112/1115 SHRA


LIBV 111155Z 30009KT 9999 FEW040 10/01 Q1015 RMK SCT SCT110 VIS MIN 9999 WIND THR32 30010KT WIND THR14 29009KT BLU

TAF LIBV 111100Z 1112/1121 33015KT 9999 SCT025 SCT050
  TEMPO 1112/1115 BKN025 FEW035CB
  BECMG 1117/1120 6000 SCT010


LICA 111150Z 22006KT 200V260 9999 SCT020 13/05 Q1016

TAF LICA 111100Z 1112/1212 VRB06KT 9999 SCT030
  BECMG 1203/1206 08010KT


LICC 111250Z 30011KT 9999 SCT070 16/04 Q1016

TAF LICC 111100Z 1112/1212 26012KT 9999 FEW040

LICD 111150Z 30016KT 270V330 9999 FEW030 17/09 Q1021

TAF LICD 111100Z 1112/1212 29020KT 9999 SCT030
  BECMG 1209/1211 24010KT


LICG 111155Z 30017KT 9999 -RA SCT015 SCT025 14/11 Q1019 RMK BKN VIS MIN 9999 WIND THR08 28016G31KT WIND THR21 31013KT BLU

TAF LICG 111100Z 1112/1121 29015KT 9999 SCT020
  BECMG 1112/1116 29015G25KT


LICJ 111250Z 31011KT 9999 FEW040 15/09 Q1017

TAF LICJ 111100Z 1112/1212 30016KT 9999 SCT035
  BECMG 1118/1120 19007KT
  BECMG 1209/1211 27012KT


LICR 111150Z 36010KT 9999 FEW040 16/03 Q1016

TAF LICR 111100Z 1112/1212 34010KT 9999 SCT030
  BECMG 1116/1118 VRB05KT
  BECMG 1209/0911 18010KT


LICT 111155Z 31012KT 9999 SCT022 SCT030 15/10 Q1018 RMK BKN BKN080 VIS MIN 9999 WIND THR13 30013KT BLU

TAF LICT 111100Z 1112/1121 32012KT 9999 SCT020
  TEMPO 1112/1116 BKN020
  BECMG 1116/1118 VRB04KT


LICZ 111155Z /////KT 9999 FEW020 SCT080 17/07 Q1016 RMK BKN VIS MIN 9999 WIND THR28 28011KT WIND THR10 28013KT A3003 BLU

TAF LICZ 111100Z 1112/1121 28012KT 9999 FEW025 SCT080

LIEA 111250Z 27009KT 230V300 9999 SCT030 14/08 Q1018

TAF LIEA 111100Z 1112/1212 29010KT 9999 FEW030

LIEE 111250Z 33013KT 9999 SCT040 SCT050 14/06 Q1019

TAF LIEE 111100Z 1112/1212 33012KT 9999 SCT030

LIED 111155Z 31015KT 9999 FEW012 BKN040 14/09 Q1018 RMK BKN VIS MIN 9999 WIND THR35 /////KT WIND THR17 /////KT BLU

TAF LIED 111200Z 1112/1121 32015KT SCT040

LIEO 111250Z 23007KT 200V260 9999 FEW040 16/06 Q1017

TAF LIEO 111100Z 1112/1212 24010KT 9999 FEW030

LIPR 111250Z 29010KT 9999 FEW035 11/00 Q1018

TAF LIPR 111100Z 1112/1121 VRB05KT CAVOK

LIPY 111150Z VRB02KT 9999 FEW035 10/02 Q1018

TAF LIPY 111100Z 1112/1212 32012KT 9999 FEW040
  TEMPO 1206/1212 SHRA


LIRA 111250Z 02004KT 330V100 CAVOK 12/M03 Q1016

TAF LIRA 111100Z 1112/1212 VRB05KT 9999 SCT030
  BECMG 1208/1210 13010KT


LIRE 111155Z 03006KT CAVOK 13/M04 Q1017 RMK SKC VIS MIN 9999 WIND THR13 05005KT WIND THR31 /////KT BLU

TAF LIRE 111100Z 1112/1121 36010KT CAVOK

LIRF 111250Z VRB03KT CAVOK 14/01 Q1016 NOSIG

TAF LIRF 111100Z 1112/1218 03007KT 9999 SCT030
  BECMG 1121/1123 13010KT
  TEMPO 1215/1218 RA


LIRG 111155Z 14002KT CAVOK 12/01 Q1018 RMK SKC MON NE LIB NC VIS MIN 9999 BLU

TAF LIRG 111100Z 1112/1121 36005KT CAVOK

LIRH 111155Z 07003KT 9999 FEW035 12/03 Q1017 RMK FEW MON LIB VAR RAPID VIS MIN 9999 WIND THR16 /////KT BLU

TAF LIRH 111100Z 1112/1121 VRB03KT 9999 FEW030

LIRL 111155Z 14005KT 9999 FEW025 15/01 Q1016 RMK FEW MON LIB NC VIS MIN 9999 WIND THR12 15003KT WIND THR30 13007KT BLU

TAF LIRL 111100Z 1112/1121 15005KT 9999 FEW020

LIRM 111155Z /////KT 9999 FEW020 12/02 Q1016 RMK FEW VIS MIN 9999 WIND THR06 06005KT BLU

TAF LIRM 111100Z 1112/1121 03004KT 9999 FEW030

LIRN 111250Z 10003KT 040V140 9999 FEW050 13/M02 Q1016 NOSIG

TAF LIRN 111100Z 1112/1212 05008KT 9999 FEW030

LIRP 111245Z 13004KT CAVOK 13/M03 Q1017 NOSIG

TAF LIRP 111100Z 1112/1212 12005KT CAVOK
  BECMG 1116/1118 9999 SCT080


LIRQ 111250Z 21004KT 160V240 CAVOK 13/M01 Q1017

TAF LIRQ 111100Z 1112/1212 VRB05KT 9999 FEW030

LIRS 111155Z 07004KT CAVOK 12/M01 Q1017 RMK SKC VIS MIN 9999 WIND THR03 11003KT WIND THR21 13002KT BLU

TAF LIRS 111100Z 1112/1121 05012KT CAVOK

LIRZ 111150Z VRB01KT CAVOK 08/01 Q1017

TAF LIRZ 111100Z 1112/1212 VRB05KT 9999 SCT030

LMML 111245Z 31013KT 9999 FEW035 16/06 Q1018 NOSIG

TAF LMML 111100Z 1112/1212 32015KT 9999 SCT030
  BECMG 1209/1212 25015KT
  PROB30
  TEMPO 1209/1212 8000 SHRA BKN020TCU


DTTA 111230Z 28013KT 260V320 9999 SCT023 18/08 Q1020 NOSIG

TAF DTTA 111100Z 1112/1212 29015G27KT 9999 SCT023
  BECMG 1117/1119 23010KT


DTTJ 111230Z 27009KT CAVOK 18/05 Q1022 NOSIG

TAF DTTJ 111100Z 1112/1212 26009KT CAVOK